Time;durP1;ratioP1;P1;durP2;ratioP2;P2;SDS_P1;SDS_P2;PMS_P1;PMS_P2;Temp;Humidity;BMP_temperature;BMP_pressure;BME280_temperature;BME280_humidity;BME280_pressure;Samples;Min_cycle;Max_cycle;Signal;HPM_P1;HPM_P2
2021/04/03 00:02:15;;;;;;;1.40;0.20;;;8.40;81.10;;;;;;5070492;28;20211;-62
2021/04/03 00:04:40;;;;;;;1.40;0.20;;;8.40;80.80;;;;;;5071199;28;20185;-62
2021/04/03 00:07:06;;;;;;;1.40;0.20;;;8.40;80.60;;;;;;5071145;28;20655;-61
2021/04/03 00:09:31;;;;;;;1.40;0.20;;;8.40;81.20;;;;;;5071970;28;20181;-61
2021/04/03 00:11:57;;;;;;;1.40;0.20;;;8.50;80.30;;;;;;5069439;28;20258;-61
2021/04/03 00:14:23;;;;;;;1.40;0.20;;;8.50;79.90;;;;;;5073071;28;20227;-61
2021/04/03 00:16:48;;;;;;;1.40;0.20;;;8.60;80.00;;;;;;5072423;28;20192;-61
2021/04/03 00:19:13;;;;;;;1.40;0.20;;;8.60;79.60;;;;;;5068437;28;20216;-61
2021/04/03 00:21:39;;;;;;;1.40;0.20;;;8.60;79.60;;;;;;5071785;28;20189;-61
2021/04/03 00:24:05;;;;;;;1.40;0.20;;;8.50;79.80;;;;;;5069670;28;20217;-61
2021/04/03 00:26:30;;;;;;;1.40;0.20;;;8.60;80.10;;;;;;5072474;28;20217;-61
2021/04/03 00:28:56;;;;;;;1.40;0.20;;;8.60;79.90;;;;;;5072455;28;20957;-61
2021/04/03 00:31:23;;;;;;;1.40;0.20;;;8.60;80.00;;;;;;5075013;28;20188;-61
2021/04/03 00:33:48;;;;;;;1.40;0.20;;;8.60;79.80;;;;;;5081638;28;20271;-62
2021/04/03 00:36:14;;;;;;;1.40;0.20;;;8.60;79.60;;;;;;5068637;28;20466;-60
2021/04/03 00:38:40;;;;;;;1.40;0.20;;;8.60;79.70;;;;;;5066894;28;20212;-61
2021/04/03 00:41:05;;;;;;;1.40;0.20;;;8.50;80.00;;;;;;5072111;28;20191;-60
2021/04/03 00:43:31;;;;;;;1.40;0.20;;;8.50;80.00;;;;;;5074715;28;20829;-60
2021/04/03 00:45:56;;;;;;;1.73;0.40;;;8.50;79.90;;;;;;5070750;28;20211;-60
2021/04/03 00:48:23;;;;;;;1.40;0.20;;;8.50;80.20;;;;;;5076504;28;20273;-60
2021/04/03 00:50:50;;;;;;;1.40;0.20;;;8.40;80.30;;;;;;5070156;28;20192;-63
2021/04/03 00:53:22;;;;;;;1.40;0.20;;;8.40;80.90;;;;;;5081409;28;20455;-60
2021/04/03 00:55:48;;;;;;;1.40;0.30;;;8.40;80.90;;;;;;5086541;28;20468;-62
2021/04/03 00:58:14;;;;;;;1.40;0.20;;;8.40;80.70;;;;;;5089856;28;20467;-64
2021/04/03 01:00:40;;;;;;;1.90;0.63;;;8.40;81.20;;;;;;5086731;28;20435;-61
2021/04/03 01:03:06;;;;;;;1.40;0.30;;;8.30;81.50;;;;;;5089002;28;20475;-60
2021/04/03 01:05:33;;;;;;;1.40;0.20;;;8.30;81.60;;;;;;5069950;28;20662;-60
2021/04/03 01:07:59;;;;;;;1.40;0.20;;;8.20;82.20;;;;;;5073316;28;20989;-61
2021/04/03 01:10:31;;;;;;;1.47;0.30;;;8.20;82.20;;;;;;5072993;28;20519;-60
2021/04/03 01:13:23;;;;;;;1.50;0.40;;;8.20;82.40;;;;;;5068903;28;20203;-61
2021/04/03 01:15:58;;;;;;;1.50;0.33;;;8.10;82.90;;;;;;5068386;28;20427;-60
2021/04/03 01:18:29;;;;;;;1.50;0.30;;;8.10;83.10;;;;;;5054430;28;20458;-60
2021/04/03 01:21:29;;;;;;;1.50;0.30;;;8.10;83.40;;;;;;5056168;28;20820;-61
2021/04/03 01:24:07;;;;;;;1.50;0.30;;;8.00;84.10;;;;;;5058310;28;20216;-60
2021/04/03 01:26:52;;;;;;;1.43;0.20;;;8.00;84.70;;;;;;5074162;28;20434;-61
2021/04/03 01:29:50;;;;;;;1.40;0.20;;;8.10;84.20;;;;;;5066952;28;20516;-61
2021/04/03 01:32:24;;;;;;;1.40;0.20;;;8.20;84.00;;;;;;5074593;28;20441;-61
2021/04/03 01:34:50;;;;;;;1.40;0.20;;;8.20;84.20;;;;;;5071091;28;20470;-59
2021/04/03 01:37:21;;;;;;;1.40;0.30;;;8.20;84.50;;;;;;5070699;28;20929;-59
2021/04/03 01:39:50;;;;;;;1.40;0.20;;;8.20;84.70;;;;;;5071095;28;20929;-59
2021/04/03 01:42:19;;;;;;;1.40;0.20;;;8.20;84.60;;;;;;5068981;28;20442;-59
2021/04/03 01:44:51;;;;;;;1.40;0.20;;;8.10;85.10;;;;;;5074748;28;20589;-61
2021/04/03 01:47:28;;;;;;;1.40;0.20;;;8.10;85.30;;;;;;5073506;28;20434;-60
2021/04/03 01:49:56;;;;;;;1.40;0.20;;;8.00;85.80;;;;;;5073677;28;20513;-60
2021/04/03 01:52:24;;;;;;;1.47;0.20;;;8.00;85.90;;;;;;5073781;28;20442;-60
2021/04/03 01:54:54;;;;;;;6.47;0.90;;;8.00;86.30;;;;;;5074485;28;20447;-60
2021/04/03 01:57:21;;;;;;;1.40;0.20;;;8.00;86.70;;;;;;5073529;28;20797;-60
2021/04/03 01:59:48;;;;;;;1.40;0.20;;;7.90;87.10;;;;;;5074727;28;20434;-60
2021/04/03 02:02:14;;;;;;;1.70;0.63;;;8.00;87.40;;;;;;5072736;28;20434;-61
2021/04/03 02:04:44;;;;;;;1.40;0.20;;;8.00;87.60;;;;;;5076508;28;20215;-60
2021/04/03 02:07:19;;;;;;;1.40;0.20;;;7.90;87.90;;;;;;5079341;28;20521;-60
2021/04/03 02:09:50;;;;;;;1.42;0.20;;;8.00;88.20;;;;;;5078754;28;20190;-60
2021/04/03 02:12:17;;;;;;;1.40;0.20;;;7.90;88.50;;;;;;5075869;28;20184;-60
2021/04/03 02:14:46;;;;;;;1.40;0.20;;;8.00;88.60;;;;;;5080051;28;20513;-60
2021/04/03 02:17:13;;;;;;;1.40;0.20;;;8.00;89.00;;;;;;5079503;28;20865;-61
2021/04/03 02:19:40;;;;;;;1.40;0.20;;;8.00;88.90;;;;;;5075266;28;20450;-61
2021/04/03 02:22:05;;;;;;;1.40;0.20;;;7.90;89.50;;;;;;5080697;28;20447;-60
2021/04/03 02:24:31;;;;;;;1.40;0.20;;;8.00;89.70;;;;;;5072834;28;20219;-60
2021/04/03 02:26:57;;;;;;;1.40;0.20;;;8.00;89.50;;;;;;5075951;28;20177;-60
2021/04/03 02:29:22;;;;;;;1.60;0.50;;;8.00;89.70;;;;;;5077463;28;20705;-60
2021/04/03 02:31:49;;;;;;;1.40;0.20;;;7.90;89.90;;;;;;5081335;28;20172;-61
2021/04/03 02:34:14;;;;;;;1.40;0.20;;;7.90;90.20;;;;;;5086051;28;20480;-61
2021/04/03 02:36:40;;;;;;;1.40;0.20;;;7.90;90.60;;;;;;5068515;28;20224;-60
2021/04/03 02:39:06;;;;;;;1.40;0.20;;;7.90;90.80;;;;;;5070923;28;20607;-60
2021/04/03 02:42:00;;;;;;;1.40;0.20;;;7.90;90.70;;;;;;5074350;28;20267;-60
2021/04/03 02:44:54;;;;;;;1.40;0.20;;;8.00;90.60;;;;;;5068905;28;20219;-60
2021/04/03 02:47:25;;;;;;;1.40;0.20;;;8.00;90.60;;;;;;5068547;28;20470;-60
2021/04/03 02:50:29;;;;;;;1.40;0.20;;;7.90;91.00;;;;;;5068994;28;20182;-60
2021/04/03 02:52:56;;;;;;;1.40;0.20;;;7.90;91.00;;;;;;5039184;28;20450;-60
2021/04/03 02:55:26;;;;;;;1.40;0.20;;;8.00;91.00;;;;;;5074616;28;20189;-60
2021/04/03 02:57:53;;;;;;;2.40;0.82;;;8.00;91.10;;;;;;5073260;28;20470;-60
2021/04/03 03:00:20;;;;;;;1.40;0.20;;;7.90;91.20;;;;;;5072988;28;20208;-60
2021/04/03 03:02:48;;;;;;;1.40;0.20;;;7.90;91.60;;;;;;5073940;28;20473;-60
2021/04/03 03:05:14;;;;;;;1.40;0.20;;;8.00;91.60;;;;;;5068017;28;20458;-60
2021/04/03 03:07:44;;;;;;;1.40;0.20;;;7.90;91.60;;;;;;5074758;28;21026;-60
2021/04/03 03:10:13;;;;;;;3.40;0.50;;;8.00;91.90;;;;;;5071924;28;20565;-60
2021/04/03 03:12:42;;;;;;;1.40;0.20;;;8.00;91.70;;;;;;5070433;28;20446;-60
2021/04/03 03:15:08;;;;;;;1.40;0.20;;;8.00;91.90;;;;;;5073468;28;20272;-60
2021/04/03 03:17:35;;;;;;;1.40;0.20;;;8.00;92.20;;;;;;5065475;28;20217;-60
2021/04/03 03:20:02;;;;;;;1.40;0.40;;;8.00;92.20;;;;;;5069944;28;20181;-60
2021/04/03 03:22:28;;;;;;;1.40;0.20;;;8.00;92.30;;;;;;5074324;28;20501;-60
2021/04/03 03:24:54;;;;;;;1.40;0.20;;;7.90;92.30;;;;;;5071107;28;20508;-60
2021/04/03 03:27:20;;;;;;;1.40;0.20;;;8.00;92.40;;;;;;5073741;28;20462;-60
2021/04/03 03:29:46;;;;;;;1.40;0.20;;;8.00;92.50;;;;;;5070884;28;20516;-60
2021/04/03 03:32:12;;;;;;;1.40;0.20;;;8.00;93.00;;;;;;5069729;28;20435;-60
2021/04/03 03:34:38;;;;;;;1.40;0.20;;;7.90;92.80;;;;;;5072054;28;20434;-60
2021/04/03 03:37:04;;;;;;;1.40;0.20;;;7.90;92.80;;;;;;5072990;28;20184;-60
2021/04/03 03:39:31;;;;;;;1.40;0.20;;;7.90;93.20;;;;;;5068268;28;20522;-60
2021/04/03 03:41:58;;;;;;;1.47;0.20;;;7.70;93.50;;;;;;5074853;28;20195;-60
2021/04/03 03:44:25;;;;;;;1.40;0.20;;;7.70;94.10;;;;;;5074716;28;20478;-60
2021/04/03 03:46:50;;;;;;;1.40;0.20;;;7.70;94.10;;;;;;5074076;28;20463;-60
2021/04/03 03:49:16;;;;;;;1.40;0.20;;;7.70;94.40;;;;;;5073079;28;20715;-60
2021/04/03 03:51:42;;;;;;;1.40;0.20;;;7.70;94.60;;;;;;5072202;28;20195;-60
2021/04/03 03:54:07;;;;;;;1.40;0.20;;;7.60;94.80;;;;;;5069085;28;20196;-60
2021/04/03 03:56:34;;;;;;;1.50;0.53;;;7.70;94.90;;;;;;5072595;28;20180;-60
2021/04/03 03:59:00;;;;;;;1.37;0.20;;;7.80;94.60;;;;;;5069776;28;20208;-60
2021/04/03 04:01:25;;;;;;;1.53;0.40;;;7.80;94.50;;;;;;5069696;28;20455;-60
2021/04/03 04:03:51;;;;;;;1.40;0.20;;;7.80;94.70;;;;;;5069700;28;20200;-60
2021/04/03 04:06:17;;;;;;;1.40;0.20;;;7.80;94.60;;;;;;5069242;28;20187;-60
2021/04/03 04:08:44;;;;;;;1.40;0.20;;;7.70;94.70;;;;;;5067677;28;20200;-60
2021/04/03 04:11:09;;;;;;;1.40;0.20;;;7.60;95.00;;;;;;5072060;28;20245;-60
2021/04/03 04:13:37;;;;;;;1.40;0.20;;;7.60;95.20;;;;;;5068787;28;20945;-60
2021/04/03 04:16:06;;;;;;;1.40;0.20;;;7.70;95.50;;;;;;5075638;28;20659;-60
2021/04/03 04:18:32;;;;;;;1.57;0.40;;;7.60;95.50;;;;;;5076025;28;20459;-60
2021/04/03 04:20:58;;;;;;;1.40;0.20;;;7.50;95.80;;;;;;5068702;28;20454;-60
2021/04/03 04:23:24;;;;;;;1.50;0.40;;;7.40;95.90;;;;;;5069244;28;20973;-59
2021/04/03 04:25:50;;;;;;;1.40;0.20;;;7.40;96.00;;;;;;5070346;28;20446;-59
2021/04/03 04:28:15;;;;;;;1.40;0.20;;;7.40;96.20;;;;;;5067335;28;20242;-59
2021/04/03 04:30:41;;;;;;;17.97;11.13;;;7.40;96.40;;;;;;5069177;28;20489;-60
2021/04/03 04:33:06;;;;;;;1.40;0.20;;;7.40;96.50;;;;;;5071087;28;20277;-60
2021/04/03 04:35:32;;;;;;;1.40;0.20;;;7.30;96.70;;;;;;5068649;28;20663;-60
2021/04/03 04:37:58;;;;;;;1.40;0.20;;;7.30;96.70;;;;;;5069907;28;20211;-59
2021/04/03 04:40:23;;;;;;;1.43;0.20;;;7.30;96.90;;;;;;5068906;28;20189;-60
2021/04/03 04:42:50;;;;;;;1.40;0.20;;;7.40;96.70;;;;;;5066788;28;20204;-60
2021/04/03 04:45:16;;;;;;;1.40;0.20;;;7.40;97.00;;;;;;5069656;28;20184;-60
2021/04/03 04:47:42;;;;;;;1.80;0.77;;;7.40;96.90;;;;;;5066677;28;20245;-60
2021/04/03 04:50:09;;;;;;;2.73;1.33;;;7.30;97.30;;;;;;5069577;28;20521;-59
2021/04/03 04:52:35;;;;;;;1.47;0.20;;;7.20;97.30;;;;;;5067221;28;20528;-59
2021/04/03 04:55:01;;;;;;;3.83;0.90;;;7.20;97.70;;;;;;5068195;28;20435;-59
2021/04/03 04:57:26;;;;;;;1.50;0.20;;;7.10;97.90;;;;;;5067907;28;20652;-59
2021/04/03 04:59:53;;;;;;;1.40;0.20;;;7.20;97.90;;;;;;5069984;28;20427;-60
2021/04/03 05:02:18;;;;;;;1.40;0.20;;;7.30;97.80;;;;;;5067741;28;20184;-60
2021/04/03 05:04:45;;;;;;;1.50;0.20;;;7.30;97.60;;;;;;5068826;28;20234;-60
2021/04/03 05:07:10;;;;;;;1.40;0.20;;;7.30;97.60;;;;;;5072491;28;20698;-60
2021/04/03 05:09:36;;;;;;;1.40;0.20;;;7.30;97.50;;;;;;5069651;28;20192;-60
2021/04/03 05:12:01;;;;;;;1.40;0.30;;;7.20;97.80;;;;;;5069423;28;20280;-60
2021/04/03 05:14:28;;;;;;;1.47;0.20;;;7.20;98.20;;;;;;5070306;28;20189;-60
2021/04/03 05:16:54;;;;;;;1.42;0.20;;;7.20;98.30;;;;;;5069101;28;20199;-60
2021/04/03 05:19:20;;;;;;;1.80;0.63;;;7.20;98.50;;;;;;5077497;28;20209;-60
2021/04/03 05:21:45;;;;;;;1.40;0.20;;;7.20;98.10;;;;;;5071669;28;20582;-60
2021/04/03 05:24:11;;;;;;;1.50;0.20;;;7.30;98.30;;;;;;5070594;28;20207;-60
2021/04/03 05:26:36;;;;;;;1.43;0.20;;;7.30;97.90;;;;;;5074720;28;20247;-60
2021/04/03 05:29:02;;;;;;;1.50;0.20;;;7.20;98.10;;;;;;5073321;28;20527;-60
2021/04/03 05:31:28;;;;;;;1.42;0.20;;;7.20;98.40;;;;;;5077440;28;20214;-59
2021/04/03 05:33:53;;;;;;;1.50;0.20;;;7.10;98.80;;;;;;5073796;28;20547;-59
2021/04/03 05:36:19;;;;;;;1.47;0.20;;;7.10;98.90;;;;;;5069259;28;20181;-59
2021/04/03 05:38:44;;;;;;;1.50;0.20;;;7.10;98.80;;;;;;5070643;28;20232;-59
2021/04/03 05:41:10;;;;;;;1.40;0.20;;;7.20;98.50;;;;;;5073011;28;20189;-59
2021/04/03 05:43:37;;;;;;;6.20;0.83;;;7.20;98.80;;;;;;5072024;28;20216;-59
2021/04/03 05:46:03;;;;;;;1.42;0.20;;;7.20;99.40;;;;;;5074030;28;20196;-59
2021/04/03 05:48:29;;;;;;;1.45;0.20;;;7.10;98.90;;;;;;5072979;28;20212;-60
2021/04/03 05:50:58;;;;;;;1.40;0.20;;;7.10;99.00;;;;;;5070571;28;20192;-60
2021/04/03 05:53:23;;;;;;;1.42;0.20;;;7.20;99.10;;;;;;5072862;28;20469;-60
2021/04/03 05:55:54;;;;;;;1.50;0.30;;;7.20;99.00;;;;;;5073342;28;20352;-60
2021/04/03 05:58:19;;;;;;;1.50;0.20;;;7.10;99.00;;;;;;5067651;28;20208;-60
2021/04/03 06:00:45;;;;;;;1.50;0.20;;;7.10;99.10;;;;;;5060166;28;20218;-60
2021/04/03 06:03:11;;;;;;;3.00;1.30;;;7.20;99.60;;;;;;5072621;28;20550;-60
2021/04/03 06:05:38;;;;;;;1.50;0.20;;;7.10;99.80;;;;;;5070927;28;20177;-60
2021/04/03 06:08:03;;;;;;;1.45;0.20;;;7.10;99.90;;;;;;5071952;28;20211;-60
2021/04/03 06:10:29;;;;;;;1.60;0.70;;;7.10;99.90;;;;;;5072077;28;20198;-60
2021/04/03 06:12:54;;;;;;;1.50;0.20;;;7.00;99.90;;;;;;5070452;28;20188;-60
2021/04/03 06:15:31;;;;;;;2.90;0.70;;;7.10;99.90;;;;;;5072784;28;20279;-65
2021/04/03 06:18:01;;;;;;;1.70;0.40;;;7.00;99.90;;;;;;5064985;28;20602;-61
2021/04/03 06:20:31;;;;;;;1.55;0.47;;;7.00;99.90;;;;;;5070218;28;20189;-60
2021/04/03 06:22:56;;;;;;;1.42;0.20;;;7.10;99.80;;;;;;5076202;28;20188;-60
2021/04/03 06:25:22;;;;;;;1.60;0.30;;;7.20;99.90;;;;;;5069216;28;20180;-60
2021/04/03 06:27:48;;;;;;;2.57;0.93;;;7.10;99.30;;;;;;5070658;28;20849;-61
2021/04/03 06:30:39;;;;;;;1.50;0.30;;;7.10;99.90;;;;;;5072501;28;20192;-60
2021/04/03 06:33:13;;;;;;;1.50;0.20;;;7.00;99.70;;;;;;5063910;28;20196;-60
2021/04/03 06:35:38;;;;;;;1.50;0.40;;;7.00;99.60;;;;;;5071625;28;20587;-60
2021/04/03 06:38:24;;;;;;;1.50;0.40;;;7.00;99.20;;;;;;5072707;28;20200;-60
2021/04/03 06:40:50;;;;;;;1.65;0.30;;;7.00;99.60;;;;;;5071155;28;20187;-60
2021/04/03 06:43:19;;;;;;;1.40;0.20;;;7.00;99.20;;;;;;5071841;28;20254;-60
2021/04/03 06:45:45;;;;;;;2.00;1.38;;;7.00;99.60;;;;;;5084753;28;20167;-61
2021/04/03 06:48:15;;;;;;;2.10;0.65;;;6.90;99.90;;;;;;5090052;28;20223;-60
2021/04/03 06:50:47;;;;;;;2.30;0.85;;;6.80;99.90;;;;;;5095375;28;20184;-62
2021/04/03 06:53:15;;;;;;;7.95;1.58;;;6.70;99.90;;;;;;5094287;28;20362;-61
2021/04/03 06:55:42;;;;;;;1.70;0.40;;;6.80;99.90;;;;;;5093941;28;20196;-61
2021/04/03 06:58:08;;;;;;;5.18;1.75;;;6.80;99.50;;;;;;5091279;28;20284;-61
2021/04/03 07:00:36;;;;;;;1.50;0.20;;;6.90;99.30;;;;;;5081205;28;20180;-60
2021/04/03 07:03:22;;;;;;;5.85;1.25;;;6.90;99.20;;;;;;5071518;28;20228;-61
2021/04/03 07:05:49;;;;;;;1.50;0.32;;;6.70;99.60;;;;;;5071758;28;20200;-61
2021/04/03 07:08:16;;;;;;;1.45;0.20;;;6.80;99.30;;;;;;5067554;28;20205;-60
2021/04/03 07:10:42;;;;;;;3.85;2.58;;;6.90;98.90;;;;;;5072436;28;20189;-61
2021/04/03 07:13:10;;;;;;;1.90;0.50;;;6.90;98.70;;;;;;5073980;28;20728;-60
2021/04/03 07:15:36;;;;;;;1.45;0.20;;;7.00;98.50;;;;;;5080404;28;20196;-60
2021/04/03 07:18:06;;;;;;;2.22;0.70;;;6.90;99.00;;;;;;5079569;28;20253;-62
2021/04/03 07:20:34;;;;;;;1.45;0.20;;;6.90;98.40;;;;;;5092749;28;20189;-61
2021/04/03 07:23:11;;;;;;;3.20;2.90;;;7.00;98.40;;;;;;5086343;28;20689;-61
2021/04/03 07:25:41;;;;;;;1.48;0.28;;;7.00;98.00;;;;;;5087659;28;20165;-62
2021/04/03 07:28:07;;;;;;;1.50;0.20;;;7.00;98.20;;;;;;5079468;28;20215;-60
2021/04/03 07:30:36;;;;;;;1.98;1.70;;;6.90;98.10;;;;;;5065953;28;20195;-61
2021/04/03 07:33:17;;;;;;;4.20;1.92;;;6.90;98.50;;;;;;5066844;28;20245;-59
2021/04/03 07:35:51;;;;;;;1.50;0.20;;;7.00;98.00;;;;;;5067385;28;20181;-60
2021/04/03 07:38:31;;;;;;;1.60;0.30;;;7.10;98.00;;;;;;5060721;28;20559;-60
2021/04/03 07:40:58;;;;;;;1.50;0.30;;;7.10;98.20;;;;;;5049554;28;20181;-60
2021/04/03 07:43:32;;;;;;;2.60;0.85;;;7.10;98.00;;;;;;5063605;28;20209;-60
2021/04/03 07:45:59;;;;;;;1.60;0.57;;;7.10;97.20;;;;;;5071517;28;20181;-60
2021/04/03 07:48:47;;;;;;;1.50;0.30;;;7.20;96.00;;;;;;5071084;28;20694;-60
2021/04/03 07:51:24;;;;;;;1.40;0.20;;;7.20;95.80;;;;;;5070659;28;20191;-60
2021/04/03 07:53:51;;;;;;;2.42;1.65;;;7.20;95.80;;;;;;5070870;28;20188;-60
2021/04/03 07:56:25;;;;;;;3.45;0.45;;;7.40;95.80;;;;;;5073556;28;20204;-60
2021/04/03 07:58:53;;;;;;;1.40;0.20;;;7.50;95.80;;;;;;5086237;28;20228;-60
2021/04/03 08:01:20;;;;;;;1.45;0.20;;;7.60;95.80;;;;;;5086558;28;20185;-60
2021/04/03 08:04:03;;;;;;;1.50;0.20;;;7.70;95.60;;;;;;5082243;28;20204;-59
2021/04/03 08:06:33;;;;;;;2.08;0.45;;;7.80;95.60;;;;;;5085915;28;20210;-59
2021/04/03 08:09:03;;;;;;;1.50;0.30;;;7.70;95.90;;;;;;5088724;28;20449;-60
2021/04/03 08:11:28;;;;;;;1.40;0.20;;;7.70;95.50;;;;;;5066304;28;21033;-59
2021/04/03 08:13:56;;;;;;;1.43;0.20;;;7.70;95.60;;;;;;5087397;28;20449;-60
2021/04/03 08:16:25;;;;;;;1.40;0.20;;;7.60;95.80;;;;;;5083989;28;20180;-59
2021/04/03 08:18:53;;;;;;;1.42;0.20;;;7.60;95.90;;;;;;5093464;28;20195;-59
2021/04/03 08:21:20;;;;;;;1.50;0.20;;;7.60;95.60;;;;;;5080129;28;20942;-61
2021/04/03 08:23:48;;;;;;;1.40;0.20;;;7.60;95.30;;;;;;5089629;28;20263;-62
2021/04/03 08:26:15;;;;;;;1.45;0.30;;;7.60;95.00;;;;;;5077957;28;20184;-60
2021/04/03 08:28:40;;;;;;;1.40;0.20;;;7.50;94.70;;;;;;5084444;28;20208;-60
2021/04/03 08:31:19;;;;;;;1.40;0.20;;;7.60;94.30;;;;;;5087106;28;20180;-60
2021/04/03 08:33:50;;;;;;;1.45;0.20;;;7.70;94.40;;;;;;5082286;28;20180;-60
2021/04/03 08:36:19;;;;;;;1.40;0.30;;;7.70;94.10;;;;;;5082072;28;20219;-60
2021/04/03 08:38:45;;;;;;;1.50;0.30;;;7.70;94.00;;;;;;5074827;28;20261;-60
2021/04/03 08:41:18;;;;;;;1.40;0.20;;;7.70;93.90;;;;;;5075039;28;20722;-60
2021/04/03 08:43:44;;;;;;;2.47;0.93;;;7.70;93.80;;;;;;5079849;28;20265;-60
2021/04/03 08:46:14;;;;;;;1.83;0.82;;;7.80;93.40;;;;;;5072993;28;20200;-60
2021/04/03 08:48:45;;;;;;;1.50;0.35;;;7.90;93.40;;;;;;5079669;28;20211;-60
2021/04/03 08:51:12;;;;;;;1.40;0.20;;;7.80;93.00;;;;;;5078012;28;20173;-60
2021/04/03 08:53:44;;;;;;;1.40;0.20;;;7.90;93.20;;;;;;5086511;28;20185;-60
2021/04/03 08:56:36;;;;;;;1.40;0.20;;;8.00;93.00;;;;;;5085715;28;20244;-60
2021/04/03 08:59:06;;;;;;;1.40;0.20;;;7.90;93.00;;;;;;5086690;28;20458;-60
2021/04/03 09:01:34;;;;;;;1.40;0.20;;;7.90;93.40;;;;;;5083659;28;20430;-61
2021/04/03 09:04:05;;;;;;;2.07;0.53;;;8.00;93.30;;;;;;5080923;28;20193;-60
2021/04/03 09:06:54;;;;;;;1.57;0.43;;;8.10;93.40;;;;;;5069603;28;20439;-64
2021/04/03 09:09:22;;;;;;;1.40;0.20;;;8.20;92.90;;;;;;5087914;28;20496;-60
2021/04/03 09:11:59;;;;;;;1.40;0.20;;;8.10;93.20;;;;;;5085518;28;20442;-61
2021/04/03 09:14:36;;;;;;;1.60;0.50;;;8.20;93.30;;;;;;5090466;28;20445;-61
2021/04/03 09:17:04;;;;;;;1.40;0.20;;;8.30;92.90;;;;;;5084900;28;20454;-62
2021/04/03 09:19:35;;;;;;;4.23;0.63;;;8.30;92.70;;;;;;5087106;28;20651;-60
2021/04/03 09:22:01;;;;;;;1.40;0.20;;;8.50;92.90;;;;;;5089095;28;20438;-61
2021/04/03 09:24:46;;;;;;;1.40;0.20;;;8.50;92.40;;;;;;5076870;28;20462;-60
2021/04/03 09:27:17;;;;;;;1.40;0.20;;;8.50;92.60;;;;;;5084210;28;20446;-60
2021/04/03 09:29:45;;;;;;;1.47;0.30;;;8.50;92.50;;;;;;5075534;28;20422;-60
2021/04/03 09:32:13;;;;;;;1.40;0.20;;;8.60;92.60;;;;;;5074242;28;20434;-60
2021/04/03 09:34:39;;;;;;;3.73;0.80;;;8.60;92.30;;;;;;5072321;28;20431;-60
2021/04/03 09:37:22;;;;;;;1.40;0.20;;;8.70;92.30;;;;;;5074004;28;20433;-61
2021/04/03 09:39:51;;;;;;;1.40;0.20;;;8.70;92.00;;;;;;5070733;28;20427;-60
2021/04/03 09:42:19;;;;;;;1.70;0.60;;;8.70;92.10;;;;;;5073865;28;20423;-61
2021/04/03 09:44:47;;;;;;;3.10;0.90;;;8.80;92.00;;;;;;5073910;28;20462;-60
2021/04/03 09:47:12;;;;;;;1.40;0.20;;;8.90;91.30;;;;;;5068293;28;20431;-61
2021/04/03 09:49:40;;;;;;;1.80;0.30;;;8.90;91.30;;;;;;5073557;28;20435;-61
2021/04/03 09:52:07;;;;;;;1.40;0.20;;;9.00;91.00;;;;;;5075033;28;20227;-61
2021/04/03 09:54:32;;;;;;;1.80;0.80;;;9.00;90.70;;;;;;5077249;28;20546;-60
2021/04/03 09:57:00;;;;;;;1.40;0.20;;;9.10;90.20;;;;;;5070477;28;20890;-61
2021/04/03 09:59:26;;;;;;;1.40;0.20;;;9.10;90.10;;;;;;5072622;28;20451;-61
2021/04/03 10:01:52;;;;;;;1.40;0.20;;;9.20;90.60;;;;;;5069386;28;20451;-61
2021/04/03 10:04:17;;;;;;;4.43;1.63;;;9.20;90.40;;;;;;5074863;28;20232;-60
2021/04/03 10:06:43;;;;;;;1.40;0.20;;;9.30;90.30;;;;;;5076086;28;20234;-60
2021/04/03 10:09:08;;;;;;;3.03;0.77;;;9.30;89.10;;;;;;5075151;28;20205;-62
2021/04/03 10:11:34;;;;;;;1.40;0.20;;;9.30;88.80;;;;;;5079613;28;20193;-61
2021/04/03 10:14:00;;;;;;;1.40;0.20;;;9.30;88.20;;;;;;5073503;28;20200;-59
2021/04/03 10:16:26;;;;;;;1.40;0.20;;;9.40;88.60;;;;;;5070899;28;20442;-61
2021/04/03 10:18:52;;;;;;;1.43;0.27;;;9.30;87.40;;;;;;5075391;28;20234;-60
2021/04/03 10:21:18;;;;;;;1.40;0.20;;;9.40;87.10;;;;;;5057450;28;20443;-60
2021/04/03 10:23:43;;;;;;;1.40;0.20;;;9.30;86.50;;;;;;5075428;28;20299;-60
2021/04/03 10:26:09;;;;;;;1.40;0.20;;;9.30;84.30;;;;;;5072851;28;20227;-61
2021/04/03 10:28:34;;;;;;;1.90;0.40;;;9.40;82.90;;;;;;5076447;28;20200;-61
2021/04/03 10:31:00;;;;;;;1.50;0.30;;;9.60;82.80;;;;;;5073223;28;20189;-61
2021/04/03 10:33:25;;;;;;;1.40;0.20;;;9.70;81.80;;;;;;5071552;28;20268;-60
2021/04/03 10:35:51;;;;;;;1.50;0.30;;;9.80;82.20;;;;;;5074679;28;20330;-61
2021/04/03 10:38:17;;;;;;;1.40;0.20;;;9.90;81.30;;;;;;5071823;28;20212;-60
2021/04/03 10:40:42;;;;;;;1.43;0.30;;;10.10;79.80;;;;;;5074297;28;20200;-60
2021/04/03 10:43:08;;;;;;;1.40;0.20;;;10.20;79.20;;;;;;5075228;28;20615;-61
2021/04/03 10:45:33;;;;;;;1.50;0.20;;;10.30;77.50;;;;;;5071437;28;20251;-60
2021/04/03 10:47:59;;;;;;;1.43;0.20;;;10.40;78.00;;;;;;5078674;28;20212;-60
2021/04/03 10:50:24;;;;;;;1.40;0.20;;;10.40;76.50;;;;;;5073762;28;20181;-61
2021/04/03 10:52:50;;;;;;;1.40;0.20;;;10.40;74.20;;;;;;5072678;28;20242;-61
2021/04/03 10:55:16;;;;;;;2.20;0.90;;;10.40;73.30;;;;;;5066443;28;20177;-61
2021/04/03 10:57:42;;;;;;;1.40;0.20;;;10.30;74.30;;;;;;5075156;28;20196;-60
2021/04/03 11:00:08;;;;;;;1.43;0.20;;;10.30;74.80;;;;;;5074157;28;20946;-61
2021/04/03 11:02:33;;;;;;;1.50;0.33;;;10.40;74.10;;;;;;5075815;28;20246;-60
2021/04/03 11:04:59;;;;;;;1.70;0.43;;;10.50;74.00;;;;;;5069946;28;20972;-60
2021/04/03 11:07:25;;;;;;;2.67;1.17;;;10.60;73.90;;;;;;5082547;28;20235;-61
2021/04/03 11:09:50;;;;;;;1.43;0.20;;;10.70;74.40;;;;;;5073685;28;20185;-60
2021/04/03 11:12:16;;;;;;;2.67;0.67;;;10.70;74.90;;;;;;5074050;28;20261;-61
2021/04/03 11:14:42;;;;;;;1.40;0.20;;;10.70;73.40;;;;;;5074821;28;20181;-60
2021/04/03 11:17:08;;;;;;;2.47;0.50;;;10.70;70.80;;;;;;5071913;28;20192;-60
2021/04/03 11:19:34;;;;;;;1.70;0.50;;;10.70;71.20;;;;;;5074017;28;20453;-61
2021/04/03 11:21:59;;;;;;;1.40;0.20;;;10.80;72.70;;;;;;5074185;28;20810;-60
2021/04/03 11:24:25;;;;;;;1.40;0.27;;;11.00;72.10;;;;;;5073140;28;20204;-61
2021/04/03 11:26:51;;;;;;;1.40;0.20;;;11.00;70.40;;;;;;5074870;28;20172;-61
2021/04/03 11:29:16;;;;;;;1.50;0.40;;;11.10;70.10;;;;;;5071886;28;20715;-60
2021/04/03 11:31:42;;;;;;;1.40;0.27;;;11.10;69.20;;;;;;5069483;28;20463;-61
2021/04/03 11:34:07;;;;;;;2.47;1.60;;;11.10;69.90;;;;;;5072997;28;20215;-61
2021/04/03 11:36:33;;;;;;;1.40;0.20;;;10.90;70.10;;;;;;5071393;28;20189;-60
2021/04/03 11:38:59;;;;;;;1.60;0.70;;;10.90;68.80;;;;;;5071866;28;20208;-62
2021/04/03 11:41:24;;;;;;;1.83;0.60;;;11.00;68.70;;;;;;5071212;28;20736;-61
2021/04/03 11:43:51;;;;;;;2.23;0.80;;;11.20;68.90;;;;;;5071794;28;20209;-61
2021/04/03 11:46:16;;;;;;;1.40;0.20;;;11.30;67.60;;;;;;5074763;28;20208;-62
2021/04/03 11:48:42;;;;;;;1.40;0.20;;;11.40;65.30;;;;;;5070499;28;20569;-61
2021/04/03 11:51:08;;;;;;;1.40;0.20;;;11.50;64.30;;;;;;5074798;28;20261;-60
2021/04/03 11:53:33;;;;;;;1.40;0.20;;;11.50;63.00;;;;;;5080299;28;20188;-62
2021/04/03 11:55:59;;;;;;;3.03;0.47;;;11.70;63.60;;;;;;5071703;28;20188;-61
2021/04/03 11:58:25;;;;;;;1.50;0.30;;;11.90;63.90;;;;;;5078431;28;20219;-63
2021/04/03 12:00:50;;;;;;;3.10;0.90;;;12.00;64.60;;;;;;5073612;28;20192;-61
2021/04/03 12:03:16;;;;;;;2.50;0.60;;;11.80;63.80;;;;;;5071032;28;20235;-60
2021/04/03 12:05:41;;;;;;;1.40;0.20;;;11.40;61.90;;;;;;5069102;28;20177;-60
2021/04/03 12:08:07;;;;;;;1.50;0.40;;;11.30;62.00;;;;;;5071908;28;20200;-63
2021/04/03 12:10:33;;;;;;;1.80;0.60;;;11.10;60.90;;;;;;5051902;28;20185;-62
2021/04/03 12:12:58;;;;;;;1.40;0.20;;;11.30;60.80;;;;;;5065612;28;20189;-61
2021/04/03 12:15:25;;;;;;;1.40;0.20;;;11.50;59.70;;;;;;5068606;28;20192;-61
2021/04/03 12:17:51;;;;;;;3.20;1.33;;;11.80;58.70;;;;;;5073228;28;20208;-62
2021/04/03 12:20:17;;;;;;;2.83;0.67;;;11.90;57.10;;;;;;5070660;28;20856;-61
2021/04/03 12:22:44;;;;;;;1.40;0.30;;;11.90;56.30;;;;;;5069131;28;20191;-63
2021/04/03 12:25:11;;;;;;;1.40;0.20;;;11.90;56.50;;;;;;5080431;28;20534;-61
2021/04/03 12:27:36;;;;;;;1.40;0.20;;;12.00;56.80;;;;;;5067331;28;21100;-63
2021/04/03 12:30:03;;;;;;;1.50;0.37;;;12.00;55.60;;;;;;5071792;28;20462;-62
2021/04/03 12:32:30;;;;;;;1.40;0.20;;;11.80;55.50;;;;;;5076842;28;20234;-62
2021/04/03 12:34:55;;;;;;;1.40;0.20;;;11.90;54.90;;;;;;5075453;28;20450;-63
2021/04/03 12:37:21;;;;;;;1.40;0.20;;;11.90;53.30;;;;;;5078798;28;20853;-62
2021/04/03 12:39:46;;;;;;;1.40;0.30;;;12.00;52.80;;;;;;5079817;28;20192;-61
2021/04/03 12:42:12;;;;;;;1.40;0.20;;;12.20;53.50;;;;;;5074118;28;20195;-62
2021/04/03 12:44:38;;;;;;;1.40;0.20;;;12.30;53.20;;;;;;5074879;28;20702;-62
2021/04/03 12:47:04;;;;;;;3.20;1.07;;;12.50;52.50;;;;;;5063510;28;20552;-62
2021/04/03 12:49:39;;;;;;;1.60;0.50;;;12.40;52.30;;;;;;5073777;28;20658;-61
2021/04/03 12:52:05;;;;;;;1.40;0.30;;;12.30;52.20;;;;;;5071198;28;20939;-60
2021/04/03 12:54:31;;;;;;;1.40;0.20;;;12.20;52.40;;;;;;5071945;28;20482;-61
2021/04/03 12:56:57;;;;;;;1.40;0.30;;;12.40;53.00;;;;;;5071467;28;20492;-60
2021/04/03 12:59:22;;;;;;;1.40;0.20;;;12.50;53.30;;;;;;5076790;28;20353;-60
2021/04/03 13:01:48;;;;;;;1.40;0.20;;;12.60;53.00;;;;;;5072317;28;20195;-60